Du har inga inställningar för hoppväder.nu

Hoppväder.nu

Senast uppdaterat 00:09

UTC-tid

2019-06-25 kl. 22:09


Sol och måne

Solen går upp 1:54 och går ner 24:23 (beräknade cirkatider)
Nästa fullmåne blir om 20 dagar (2019-07-16)

METAR

ESNS (Skellefteå)
(19 minuter sedan)
ESNS 252150Z AUTO VRB01KT 9999 R10/P1500N R28///// NCD 12/10 Q1021=



ESNU (Umeå)
(19 minuter sedan)
ESNU 252150Z 13003KT CAVOK 11/10 Q1022=



ESPA (Luleå)
(19 minuter sedan)
ESPA 252150Z 20004KT CAVOK 12/09 Q1021=









TAF

ESNS (Skellefteå)
(279 minuter sedan)
ESNS 251730Z 2518/2522 14006KT CAVOK=



ESNU (Umeå)
(99 minuter sedan)
ESNU 252030Z 2521/2606 18004KT CAVOK=



ESPA (Luleå)
(99 minuter sedan)
ESPA 252030Z 2521/2523 21004KT CAVOK=





Kodnycklar till TAF och METAR






LHP

(Skellefteå är område A1b i Norra delen)

Prognos är inte uppdaterad




Spotting

Hur fungerar spotthjälpen och Vindkartan?

Markvind är ca 0 m/s.



Vindkartan

Senast uppdaterad 00:09




All data kommer från LFV.se